sensor_id;sensor_type;location;lat;lon;timestamp;temperature;humidity
4856;DHT22;2442;48.676;7.986;2022-08-03T00:01:04;17.50;99.90
4856;DHT22;2442;48.676;7.986;2022-08-03T00:03:31;17.50;99.90
4856;DHT22;2442;48.676;7.986;2022-08-03T00:05:58;17.50;99.90
4856;DHT22;2442;48.676;7.986;2022-08-03T00:08:26;17.50;99.90
4856;DHT22;2442;48.676;7.986;2022-08-03T00:10:53;17.50;99.90
4856;DHT22;2442;48.676;7.986;2022-08-03T00:13:20;17.40;99.90
4856;DHT22;2442;48.676;7.986;2022-08-03T00:15:47;17.60;99.90
4856;DHT22;2442;48.676;7.986;2022-08-03T00:18:14;17.60;99.90
4856;DHT22;2442;48.676;7.986;2022-08-03T00:20:40;17.50;99.90
4856;DHT22;2442;48.676;7.986;2022-08-03T00:23:07;17.30;99.90
4856;DHT22;2442;48.676;7.986;2022-08-03T00:25:35;17.30;99.90
4856;DHT22;2442;48.676;7.986;2022-08-03T00:28:03;17.40;99.90
4856;DHT22;2442;48.676;7.986;2022-08-03T00:30:31;17.30;99.90
4856;DHT22;2442;48.676;7.986;2022-08-03T00:32:58;17.20;99.90
4856;DHT22;2442;48.676;7.986;2022-08-03T00:35:26;17.20;99.90
4856;DHT22;2442;48.676;7.986;2022-08-03T00:37:53;17.00;99.90
4856;DHT22;2442;48.676;7.986;2022-08-03T00:40:20;17.00;99.90
4856;DHT22;2442;48.676;7.986;2022-08-03T00:42:50;17.00;99.90
4856;DHT22;2442;48.676;7.986;2022-08-03T00:45:19;16.90;99.90
4856;DHT22;2442;48.676;7.986;2022-08-03T00:47:47;16.90;99.90
4856;DHT22;2442;48.676;7.986;2022-08-03T00:50:15;16.80;99.90
4856;DHT22;2442;48.676;7.986;2022-08-03T00:52:42;16.80;99.90
4856;DHT22;2442;48.676;7.986;2022-08-03T00:55:10;16.70;99.90
4856;DHT22;2442;48.676;7.986;2022-08-03T00:57:38;16.70;99.90
4856;DHT22;2442;48.676;7.986;2022-08-03T01:00:09;16.60;99.90
4856;DHT22;2442;48.676;7.986;2022-08-03T01:02:37;16.60;99.90
4856;DHT22;2442;48.676;7.986;2022-08-03T01:05:05;16.60;99.90
4856;DHT22;2442;48.676;7.986;2022-08-03T01:07:41;16.60;99.90
4856;DHT22;2442;48.676;7.986;2022-08-03T01:10:16;16.60;99.90
4856;DHT22;2442;48.676;7.986;2022-08-03T01:12:53;16.60;99.90
4856;DHT22;2442;48.676;7.986;2022-08-03T01:15:30;16.50;99.90
4856;DHT22;2442;48.676;7.986;2022-08-03T01:18:03;16.50;99.90
4856;DHT22;2442;48.676;7.986;2022-08-03T01:20:33;16.40;99.90
4856;DHT22;2442;48.676;7.986;2022-08-03T01:23:10;16.40;99.90
4856;DHT22;2442;48.676;7.986;2022-08-03T01:25:54;16.30;99.90
4856;DHT22;2442;48.676;7.986;2022-08-03T01:28:38;16.30;99.90
4856;DHT22;2442;48.676;7.986;2022-08-03T01:31:15;16.50;99.90
4856;DHT22;2442;48.676;7.986;2022-08-03T01:33:47;16.50;99.90
4856;DHT22;2442;48.676;7.986;2022-08-03T01:36:24;16.40;99.90
4856;DHT22;2442;48.676;7.986;2022-08-03T01:38:53;16.40;99.90
4856;DHT22;2442;48.676;7.986;2022-08-03T01:41:24;16.50;99.90
4856;DHT22;2442;48.676;7.986;2022-08-03T01:43:53;16.40;99.90
4856;DHT22;2442;48.676;7.986;2022-08-03T01:46:22;16.30;99.90
4856;DHT22;2442;48.676;7.986;2022-08-03T01:48:51;16.30;99.90
4856;DHT22;2442;48.676;7.986;2022-08-03T01:51:20;16.30;99.90
4856;DHT22;2442;48.676;7.986;2022-08-03T01:53:48;16.30;99.90
4856;DHT22;2442;48.676;7.986;2022-08-03T01:56:16;16.40;99.90
4856;DHT22;2442;48.676;7.986;2022-08-03T01:58:44;16.30;99.90
4856;DHT22;2442;48.676;7.986;2022-08-03T02:01:14;16.20;99.90
4856;DHT22;2442;48.676;7.986;2022-08-03T02:03:44;16.20;99.90
4856;DHT22;2442;48.676;7.986;2022-08-03T02:06:12;16.10;99.90
4856;DHT22;2442;48.676;7.986;2022-08-03T02:08:41;15.90;99.90
4856;DHT22;2442;48.676;7.986;2022-08-03T02:11:08;15.90;99.90
4856;DHT22;2442;48.676;7.986;2022-08-03T02:13:36;15.90;99.90
4856;DHT22;2442;48.676;7.986;2022-08-03T02:16:04;15.90;99.90
4856;DHT22;2442;48.676;7.986;2022-08-03T02:18:31;16.00;99.90
4856;DHT22;2442;48.676;7.986;2022-08-03T02:21:00;16.00;99.90
4856;DHT22;2442;48.676;7.986;2022-08-03T02:23:28;16.10;99.90
4856;DHT22;2442;48.676;7.986;2022-08-03T02:25:59;16.20;99.90
4856;DHT22;2442;48.676;7.986;2022-08-03T02:28:31;16.30;99.90
4856;DHT22;2442;48.676;7.986;2022-08-03T02:31:03;16.20;99.90
4856;DHT22;2442;48.676;7.986;2022-08-03T02:33:33;16.10;99.90
4856;DHT22;2442;48.676;7.986;2022-08-03T02:36:03;16.10;99.90
4856;DHT22;2442;48.676;7.986;2022-08-03T02:38:33;16.00;99.90
4856;DHT22;2442;48.676;7.986;2022-08-03T02:41:05;16.10;99.90
4856;DHT22;2442;48.676;7.986;2022-08-03T02:43:34;16.20;99.90
4856;DHT22;2442;48.676;7.986;2022-08-03T02:46:01;16.10;99.90
4856;DHT22;2442;48.676;7.986;2022-08-03T02:48:30;16.10;99.90
4856;DHT22;2442;48.676;7.986;2022-08-03T02:50:59;16.20;99.90
4856;DHT22;2442;48.676;7.986;2022-08-03T02:53:28;16.20;99.90
4856;DHT22;2442;48.676;7.986;2022-08-03T02:55:56;16.10;99.90
4856;DHT22;2442;48.676;7.986;2022-08-03T02:58:24;16.10;99.90
4856;DHT22;2442;48.676;7.986;2022-08-03T03:00:52;16.10;99.90
4856;DHT22;2442;48.676;7.986;2022-08-03T03:03:21;16.20;99.90
4856;DHT22;2442;48.676;7.986;2022-08-03T03:05:49;16.30;99.90
4856;DHT22;2442;48.676;7.986;2022-08-03T03:08:18;16.20;99.90
4856;DHT22;2442;48.676;7.986;2022-08-03T03:10:46;16.20;99.90
4856;DHT22;2442;48.676;7.986;2022-08-03T03:13:14;16.20;99.90
4856;DHT22;2442;48.676;7.986;2022-08-03T03:15:42;16.10;99.90
4856;DHT22;2442;48.676;7.986;2022-08-03T03:18:09;16.00;99.90
4856;DHT22;2442;48.676;7.986;2022-08-03T03:20:37;16.10;99.90
4856;DHT22;2442;48.676;7.986;2022-08-03T03:23:05;16.20;99.90
4856;DHT22;2442;48.676;7.986;2022-08-03T03:25:33;16.10;99.90
4856;DHT22;2442;48.676;7.986;2022-08-03T03:28:02;15.90;99.90
4856;DHT22;2442;48.676;7.986;2022-08-03T03:30:29;15.70;99.90
4856;DHT22;2442;48.676;7.986;2022-08-03T03:32:57;15.50;99.90
4856;DHT22;2442;48.676;7.986;2022-08-03T03:35:24;15.40;99.90
4856;DHT22;2442;48.676;7.986;2022-08-03T03:37:51;15.40;99.90
4856;DHT22;2442;48.676;7.986;2022-08-03T03:40:18;15.40;99.90
4856;DHT22;2442;48.676;7.986;2022-08-03T03:42:45;15.30;99.90
4856;DHT22;2442;48.676;7.986;2022-08-03T03:45:13;15.30;99.90
4856;DHT22;2442;48.676;7.986;2022-08-03T03:47:41;15.40;99.90
4856;DHT22;2442;48.676;7.986;2022-08-03T03:50:08;15.50;99.90
4856;DHT22;2442;48.676;7.986;2022-08-03T03:52:35;15.50;99.90
4856;DHT22;2442;48.676;7.986;2022-08-03T03:55:03;15.40;99.90
4856;DHT22;2442;48.676;7.986;2022-08-03T03:57:30;15.40;99.90
4856;DHT22;2442;48.676;7.986;2022-08-03T03:59:56;15.40;99.90
4856;DHT22;2442;48.676;7.986;2022-08-03T04:02:24;15.40;99.90
4856;DHT22;2442;48.676;7.986;2022-08-03T04:04:51;15.40;99.90
4856;DHT22;2442;48.676;7.986;2022-08-03T04:07:45;15.40;99.90
4856;DHT22;2442;48.676;7.986;2022-08-03T04:10:35;15.50;99.90
4856;DHT22;2442;48.676;7.986;2022-08-03T04:13:23;15.40;99.90
4856;DHT22;2442;48.676;7.986;2022-08-03T04:15:50;15.30;99.90
4856;DHT22;2442;48.676;7.986;2022-08-03T04:18:20;15.30;99.90
4856;DHT22;2442;48.676;7.986;2022-08-03T04:20:49;15.20;99.90
4856;DHT22;2442;48.676;7.986;2022-08-03T04:23:18;15.10;99.90
4856;DHT22;2442;48.676;7.986;2022-08-03T04:25:48;15.10;99.90
4856;DHT22;2442;48.676;7.986;2022-08-03T04:28:16;15.30;99.90
4856;DHT22;2442;48.676;7.986;2022-08-03T04:30:46;15.50;99.90
4856;DHT22;2442;48.676;7.986;2022-08-03T04:33:16;15.50;99.90
4856;DHT22;2442;48.676;7.986;2022-08-03T04:35:47;15.60;99.90
4856;DHT22;2442;48.676;7.986;2022-08-03T04:38:17;15.80;99.90
4856;DHT22;2442;48.676;7.986;2022-08-03T04:40:45;15.80;99.90
4856;DHT22;2442;48.676;7.986;2022-08-03T04:43:14;15.80;99.90
4856;DHT22;2442;48.676;7.986;2022-08-03T04:45:42;15.80;99.90
4856;DHT22;2442;48.676;7.986;2022-08-03T04:48:13;15.80;99.90
4856;DHT22;2442;48.676;7.986;2022-08-03T04:50:41;15.80;99.90
4856;DHT22;2442;48.676;7.986;2022-08-03T04:53:09;15.80;99.90
4856;DHT22;2442;48.676;7.986;2022-08-03T04:55:36;15.80;99.90
4856;DHT22;2442;48.676;7.986;2022-08-03T04:58:04;15.90;99.90
4856;DHT22;2442;48.676;7.986;2022-08-03T05:00:31;15.90;99.90
4856;DHT22;2442;48.676;7.986;2022-08-03T05:02:58;16.10;99.90
4856;DHT22;2442;48.676;7.986;2022-08-03T05:05:25;16.30;99.90
4856;DHT22;2442;48.676;7.986;2022-08-03T05:07:52;16.40;99.90
4856;DHT22;2442;48.676;7.986;2022-08-03T05:10:20;16.40;99.90
4856;DHT22;2442;48.676;7.986;2022-08-03T05:12:47;16.40;99.90
4856;DHT22;2442;48.676;7.986;2022-08-03T05:15:16;16.40;99.90
4856;DHT22;2442;48.676;7.986;2022-08-03T05:17:43;16.50;99.90
4856;DHT22;2442;48.676;7.986;2022-08-03T05:20:10;16.70;99.90
4856;DHT22;2442;48.676;7.986;2022-08-03T05:22:37;16.80;99.90
4856;DHT22;2442;48.676;7.986;2022-08-03T05:25:05;16.90;99.90
4856;DHT22;2442;48.676;7.986;2022-08-03T05:27:33;16.90;99.90
4856;DHT22;2442;48.676;7.986;2022-08-03T05:30:00;17.00;99.90
4856;DHT22;2442;48.676;7.986;2022-08-03T05:32:27;17.10;99.90
4856;DHT22;2442;48.676;7.986;2022-08-03T05:34:54;17.20;99.90
4856;DHT22;2442;48.676;7.986;2022-08-03T05:37:21;17.30;99.90
4856;DHT22;2442;48.676;7.986;2022-08-03T05:39:47;17.30;99.90
4856;DHT22;2442;48.676;7.986;2022-08-03T05:42:15;17.40;99.90
4856;DHT22;2442;48.676;7.986;2022-08-03T05:44:43;17.50;99.90
4856;DHT22;2442;48.676;7.986;2022-08-03T05:47:10;17.70;99.90
4856;DHT22;2442;48.676;7.986;2022-08-03T05:49:37;17.80;99.90
4856;DHT22;2442;48.676;7.986;2022-08-03T05:52:04;17.90;99.90
4856;DHT22;2442;48.676;7.986;2022-08-03T05:54:30;18.10;99.90
4856;DHT22;2442;48.676;7.986;2022-08-03T05:56:57;18.30;99.90
4856;DHT22;2442;48.676;7.986;2022-08-03T05:59:24;18.50;99.90
4856;DHT22;2442;48.676;7.986;2022-08-03T06:01:52;18.50;99.90
4856;DHT22;2442;48.676;7.986;2022-08-03T06:04:19;18.60;99.90
4856;DHT22;2442;48.676;7.986;2022-08-03T06:06:46;18.70;99.90
4856;DHT22;2442;48.676;7.986;2022-08-03T06:09:15;18.80;99.90
4856;DHT22;2442;48.676;7.986;2022-08-03T06:11:42;18.90;99.90
4856;DHT22;2442;48.676;7.986;2022-08-03T06:14:09;19.10;99.90
4856;DHT22;2442;48.676;7.986;2022-08-03T06:16:35;19.20;99.90
4856;DHT22;2442;48.676;7.986;2022-08-03T06:19:03;19.30;99.90
4856;DHT22;2442;48.676;7.986;2022-08-03T06:21:30;19.40;99.90
4856;DHT22;2442;48.676;7.986;2022-08-03T06:23:57;19.60;99.90
4856;DHT22;2442;48.676;7.986;2022-08-03T06:26:25;19.60;99.90
4856;DHT22;2442;48.676;7.986;2022-08-03T06:28:53;19.80;99.90
4856;DHT22;2442;48.676;7.986;2022-08-03T06:31:21;20.00;99.90
4856;DHT22;2442;48.676;7.986;2022-08-03T06:33:48;20.30;99.90
4856;DHT22;2442;48.676;7.986;2022-08-03T06:36:16;20.50;99.90
4856;DHT22;2442;48.676;7.986;2022-08-03T06:38:43;20.90;99.90
4856;DHT22;2442;48.676;7.986;2022-08-03T06:41:10;21.20;99.90
4856;DHT22;2442;48.676;7.986;2022-08-03T06:43:37;21.40;99.90
4856;DHT22;2442;48.676;7.986;2022-08-03T06:46:04;21.50;99.90
4856;DHT22;2442;48.676;7.986;2022-08-03T06:48:31;21.40;99.90
4856;DHT22;2442;48.676;7.986;2022-08-03T06:50:58;21.80;99.90
4856;DHT22;2442;48.676;7.986;2022-08-03T06:53:26;22.20;99.90
4856;DHT22;2442;48.676;7.986;2022-08-03T06:55:53;22.30;99.90
4856;DHT22;2442;48.676;7.986;2022-08-03T06:58:19;22.70;99.90
4856;DHT22;2442;48.676;7.986;2022-08-03T07:00:46;22.50;99.90
4856;DHT22;2442;48.676;7.986;2022-08-03T07:03:13;22.70;99.90
4856;DHT22;2442;48.676;7.986;2022-08-03T07:05:40;22.80;99.90
4856;DHT22;2442;48.676;7.986;2022-08-03T07:08:07;23.20;99.90
4856;DHT22;2442;48.676;7.986;2022-08-03T07:10:36;23.50;99.90
4856;DHT22;2442;48.676;7.986;2022-08-03T07:13:03;23.90;99.90
4856;DHT22;2442;48.676;7.986;2022-08-03T07:15:30;24.20;99.90
4856;DHT22;2442;48.676;7.986;2022-08-03T07:17:57;24.40;99.90
4856;DHT22;2442;48.676;7.986;2022-08-03T07:20:24;24.60;99.90
4856;DHT22;2442;48.676;7.986;2022-08-03T07:22:50;24.80;99.90
4856;DHT22;2442;48.676;7.986;2022-08-03T07:25:17;25.00;99.90
4856;DHT22;2442;48.676;7.986;2022-08-03T07:27:47;25.10;99.90
4856;DHT22;2442;48.676;7.986;2022-08-03T07:30:14;25.00;99.90
4856;DHT22;2442;48.676;7.986;2022-08-03T07:32:41;25.00;99.90
4856;DHT22;2442;48.676;7.986;2022-08-03T07:35:09;25.10;99.90
4856;DHT22;2442;48.676;7.986;2022-08-03T07:37:36;25.30;99.90
4856;DHT22;2442;48.676;7.986;2022-08-03T07:40:04;25.40;99.90
4856;DHT22;2442;48.676;7.986;2022-08-03T07:42:31;25.60;99.90
4856;DHT22;2442;48.676;7.986;2022-08-03T07:44:59;25.90;99.90
4856;DHT22;2442;48.676;7.986;2022-08-03T07:47:28;25.80;99.90
4856;DHT22;2442;48.676;7.986;2022-08-03T07:49:55;26.00;99.90
4856;DHT22;2442;48.676;7.986;2022-08-03T07:52:22;26.00;99.90
4856;DHT22;2442;48.676;7.986;2022-08-03T07:55:07;26.10;99.90
4856;DHT22;2442;48.676;7.986;2022-08-03T07:57:34;26.30;99.90
4856;DHT22;2442;48.676;7.986;2022-08-03T08:00:04;26.50;99.90
4856;DHT22;2442;48.676;7.986;2022-08-03T08:02:33;26.50;99.90
4856;DHT22;2442;48.676;7.986;2022-08-03T08:04:59;26.50;99.90
4856;DHT22;2442;48.676;7.986;2022-08-03T08:07:26;26.70;99.90
4856;DHT22;2442;48.676;7.986;2022-08-03T08:09:53;26.40;99.90
4856;DHT22;2442;48.676;7.986;2022-08-03T08:12:20;26.40;99.90
4856;DHT22;2442;48.676;7.986;2022-08-03T08:14:47;26.60;99.90
4856;DHT22;2442;48.676;7.986;2022-08-03T08:17:15;27.00;99.90
4856;DHT22;2442;48.676;7.986;2022-08-03T08:19:42;27.40;99.90
4856;DHT22;2442;48.676;7.986;2022-08-03T08:22:08;27.50;99.90
4856;DHT22;2442;48.676;7.986;2022-08-03T08:24:35;27.20;99.90
4856;DHT22;2442;48.676;7.986;2022-08-03T08:27:02;26.70;99.90
4856;DHT22;2442;48.676;7.986;2022-08-03T08:29:29;26.80;99.90
4856;DHT22;2442;48.676;7.986;2022-08-03T08:31:56;26.80;99.90
4856;DHT22;2442;48.676;7.986;2022-08-03T08:34:24;26.60;99.90
4856;DHT22;2442;48.676;7.986;2022-08-03T08:36:51;26.80;99.90
4856;DHT22;2442;48.676;7.986;2022-08-03T08:39:17;26.70;99.90
4856;DHT22;2442;48.676;7.986;2022-08-03T08:41:44;26.80;99.90
4856;DHT22;2442;48.676;7.986;2022-08-03T08:44:11;27.20;99.90
4856;DHT22;2442;48.676;7.986;2022-08-03T08:46:38;27.70;99.90
4856;DHT22;2442;48.676;7.986;2022-08-03T08:49:07;27.90;99.90
4856;DHT22;2442;48.676;7.986;2022-08-03T08:51:39;27.60;99.90
4856;DHT22;2442;48.676;7.986;2022-08-03T08:54:06;27.90;99.90
4856;DHT22;2442;48.676;7.986;2022-08-03T08:56:35;27.70;99.90
4856;DHT22;2442;48.676;7.986;2022-08-03T08:59:03;27.50;99.90
4856;DHT22;2442;48.676;7.986;2022-08-03T09:01:30;27.50;99.90
4856;DHT22;2442;48.676;7.986;2022-08-03T09:03:56;27.80;99.90
4856;DHT22;2442;48.676;7.986;2022-08-03T09:06:23;27.80;99.90
4856;DHT22;2442;48.676;7.986;2022-08-03T09:08:51;27.90;99.90
4856;DHT22;2442;48.676;7.986;2022-08-03T09:11:21;27.90;99.90
4856;DHT22;2442;48.676;7.986;2022-08-03T09:13:48;28.10;99.90
4856;DHT22;2442;48.676;7.986;2022-08-03T09:16:17;27.90;99.90
4856;DHT22;2442;48.676;7.986;2022-08-03T09:18:46;28.20;99.90
4856;DHT22;2442;48.676;7.986;2022-08-03T09:21:16;28.00;99.90
4856;DHT22;2442;48.676;7.986;2022-08-03T09:23:44;27.80;99.90
4856;DHT22;2442;48.676;7.986;2022-08-03T09:26:19;28.00;99.90
4856;DHT22;2442;48.676;7.986;2022-08-03T09:28:46;27.80;99.90
4856;DHT22;2442;48.676;7.986;2022-08-03T09:31:19;28.00;99.90
4856;DHT22;2442;48.676;7.986;2022-08-03T09:33:46;28.60;99.90
4856;DHT22;2442;48.676;7.986;2022-08-03T09:36:33;29.10;99.90
4856;DHT22;2442;48.676;7.986;2022-08-03T09:39:00;29.30;99.90
4856;DHT22;2442;48.676;7.986;2022-08-03T09:41:30;29.60;99.90
4856;DHT22;2442;48.676;7.986;2022-08-03T09:43:57;29.60;99.90
4856;DHT22;2442;48.676;7.986;2022-08-03T09:46:24;29.50;99.90
4856;DHT22;2442;48.676;7.986;2022-08-03T09:48:53;29.70;99.90
4856;DHT22;2442;48.676;7.986;2022-08-03T09:51:23;29.60;99.90
4856;DHT22;2442;48.676;7.986;2022-08-03T09:53:50;29.50;99.90
4856;DHT22;2442;48.676;7.986;2022-08-03T09:56:17;29.00;99.90
4856;DHT22;2442;48.676;7.986;2022-08-03T09:58:46;29.10;99.90
4856;DHT22;2442;48.676;7.986;2022-08-03T10:01:15;29.40;99.90
4856;DHT22;2442;48.676;7.986;2022-08-03T10:03:41;29.20;99.90
4856;DHT22;2442;48.676;7.986;2022-08-03T10:06:17;29.50;99.90
4856;DHT22;2442;48.676;7.986;2022-08-03T10:08:44;29.70;99.90
4856;DHT22;2442;48.676;7.986;2022-08-03T10:11:11;29.70;99.90
4856;DHT22;2442;48.676;7.986;2022-08-03T10:13:39;29.90;99.90
4856;DHT22;2442;48.676;7.986;2022-08-03T10:16:07;30.10;99.90
4856;DHT22;2442;48.676;7.986;2022-08-03T10:18:35;30.30;99.90
4856;DHT22;2442;48.676;7.986;2022-08-03T10:21:04;30.50;99.90
4856;DHT22;2442;48.676;7.986;2022-08-03T10:23:33;30.70;99.90
4856;DHT22;2442;48.676;7.986;2022-08-03T10:26:02;31.20;99.90
4856;DHT22;2442;48.676;7.986;2022-08-03T10:28:34;31.20;99.90
4856;DHT22;2442;48.676;7.986;2022-08-03T10:31:01;30.90;99.90
4856;DHT22;2442;48.676;7.986;2022-08-03T10:33:36;30.70;99.90
4856;DHT22;2442;48.676;7.986;2022-08-03T10:36:07;30.80;99.90
4856;DHT22;2442;48.676;7.986;2022-08-03T10:38:38;30.60;99.90
4856;DHT22;2442;48.676;7.986;2022-08-03T10:41:05;31.10;99.90
4856;DHT22;2442;48.676;7.986;2022-08-03T10:43:37;31.50;99.90
4856;DHT22;2442;48.676;7.986;2022-08-03T10:46:07;31.30;99.90
4856;DHT22;2442;48.676;7.986;2022-08-03T10:48:36;31.10;99.90
4856;DHT22;2442;48.676;7.986;2022-08-03T10:51:03;31.20;99.90
4856;DHT22;2442;48.676;7.986;2022-08-03T10:53:36;31.50;99.90
4856;DHT22;2442;48.676;7.986;2022-08-03T10:56:03;31.40;99.90
4856;DHT22;2442;48.676;7.986;2022-08-03T10:58:48;31.60;99.90
4856;DHT22;2442;48.676;7.986;2022-08-03T11:01:16;30.90;99.90
4856;DHT22;2442;48.676;7.986;2022-08-03T11:04:16;31.10;99.90
4856;DHT22;2442;48.676;7.986;2022-08-03T11:06:45;31.30;99.90
4856;DHT22;2442;48.676;7.986;2022-08-03T11:09:17;31.30;99.90
4856;DHT22;2442;48.676;7.986;2022-08-03T11:11:46;31.60;99.90
4856;DHT22;2442;48.676;7.986;2022-08-03T11:14:15;31.50;99.90
4856;DHT22;2442;48.676;7.986;2022-08-03T11:16:44;31.70;99.90
4856;DHT22;2442;48.676;7.986;2022-08-03T11:19:14;32.00;99.90
4856;DHT22;2442;48.676;7.986;2022-08-03T11:21:58;32.10;99.90
4856;DHT22;2442;48.676;7.986;2022-08-03T11:24:57;32.30;99.90
4856;DHT22;2442;48.676;7.986;2022-08-03T11:27:24;32.40;99.90
4856;DHT22;2442;48.676;7.986;2022-08-03T11:29:56;32.40;99.90
4856;DHT22;2442;48.676;7.986;2022-08-03T11:32:51;32.40;99.90
4856;DHT22;2442;48.676;7.986;2022-08-03T11:35:20;32.30;99.90
4856;DHT22;2442;48.676;7.986;2022-08-03T11:38:06;32.30;99.90
4856;DHT22;2442;48.676;7.986;2022-08-03T11:40:39;32.40;99.90
4856;DHT22;2442;48.676;7.986;2022-08-03T11:43:07;32.10;99.90
4856;DHT22;2442;48.676;7.986;2022-08-03T11:45:35;32.00;99.90
4856;DHT22;2442;48.676;7.986;2022-08-03T11:48:13;32.20;99.90
4856;DHT22;2442;48.676;7.986;2022-08-03T11:50:41;32.30;99.90
4856;DHT22;2442;48.676;7.986;2022-08-03T11:53:15;32.40;99.90
4856;DHT22;2442;48.676;7.986;2022-08-03T11:55:42;32.90;99.90
4856;DHT22;2442;48.676;7.986;2022-08-03T11:58:20;33.00;99.90
4856;DHT22;2442;48.676;7.986;2022-08-03T12:00:48;32.90;99.90
4856;DHT22;2442;48.676;7.986;2022-08-03T12:03:17;32.70;99.90
4856;DHT22;2442;48.676;7.986;2022-08-03T12:05:46;32.90;99.90
4856;DHT22;2442;48.676;7.986;2022-08-03T12:08:16;32.50;99.90
4856;DHT22;2442;48.676;7.986;2022-08-03T12:10:48;32.60;99.90
4856;DHT22;2442;48.676;7.986;2022-08-03T12:13:16;32.80;99.90
4856;DHT22;2442;48.676;7.986;2022-08-03T12:15:43;33.10;99.90
4856;DHT22;2442;48.676;7.986;2022-08-03T12:18:16;33.50;99.90
4856;DHT22;2442;48.676;7.986;2022-08-03T12:20:44;33.70;99.90
4856;DHT22;2442;48.676;7.986;2022-08-03T12:23:11;33.50;99.90
4856;DHT22;2442;48.676;7.986;2022-08-03T12:25:40;33.50;99.90
4856;DHT22;2442;48.676;7.986;2022-08-03T12:28:18;33.30;99.90
4856;DHT22;2442;48.676;7.986;2022-08-03T12:30:48;33.20;99.90
4856;DHT22;2442;48.676;7.986;2022-08-03T12:33:18;33.30;99.90
4856;DHT22;2442;48.676;7.986;2022-08-03T12:35:49;33.40;99.90
4856;DHT22;2442;48.676;7.986;2022-08-03T12:38:21;33.50;99.90
4856;DHT22;2442;48.676;7.986;2022-08-03T12:41:10;33.30;99.90
4856;DHT22;2442;48.676;7.986;2022-08-03T12:43:47;33.30;99.90
4856;DHT22;2442;48.676;7.986;2022-08-03T12:46:15;33.50;99.90
4856;DHT22;2442;48.676;7.986;2022-08-03T12:49:05;33.30;99.90
4856;DHT22;2442;48.676;7.986;2022-08-03T12:51:33;33.20;99.90
4856;DHT22;2442;48.676;7.986;2022-08-03T12:54:01;33.40;99.90
4856;DHT22;2442;48.676;7.986;2022-08-03T12:56:30;33.60;99.90
4856;DHT22;2442;48.676;7.986;2022-08-03T12:58:57;33.50;99.90
4856;DHT22;2442;48.676;7.986;2022-08-03T13:01:24;33.80;99.90
4856;DHT22;2442;48.676;7.986;2022-08-03T13:03:52;33.40;99.90
4856;DHT22;2442;48.676;7.986;2022-08-03T13:06:21;33.00;99.90
4856;DHT22;2442;48.676;7.986;2022-08-03T13:08:49;33.20;99.90
4856;DHT22;2442;48.676;7.986;2022-08-03T13:11:20;33.50;99.90
4856;DHT22;2442;48.676;7.986;2022-08-03T13:13:49;33.90;99.90
4856;DHT22;2442;48.676;7.986;2022-08-03T13:16:16;33.90;99.90
4856;DHT22;2442;48.676;7.986;2022-08-03T13:18:43;33.70;99.90
4856;DHT22;2442;48.676;7.986;2022-08-03T13:21:12;33.70;99.90
4856;DHT22;2442;48.676;7.986;2022-08-03T13:23:40;33.80;99.90
4856;DHT22;2442;48.676;7.986;2022-08-03T13:26:07;34.00;99.90
4856;DHT22;2442;48.676;7.986;2022-08-03T13:28:34;34.30;99.90
4856;DHT22;2442;48.676;7.986;2022-08-03T13:31:02;34.30;99.90
4856;DHT22;2442;48.676;7.986;2022-08-03T13:33:29;34.50;99.90
4856;DHT22;2442;48.676;7.986;2022-08-03T13:35:56;34.40;99.90
4856;DHT22;2442;48.676;7.986;2022-08-03T13:38:23;34.00;99.90
4856;DHT22;2442;48.676;7.986;2022-08-03T13:40:51;34.20;99.90
4856;DHT22;2442;48.676;7.986;2022-08-03T13:43:18;34.00;99.90
4856;DHT22;2442;48.676;7.986;2022-08-03T13:45:45;34.30;99.90
4856;DHT22;2442;48.676;7.986;2022-08-03T13:48:14;34.30;99.90
4856;DHT22;2442;48.676;7.986;2022-08-03T13:50:40;34.40;99.90
4856;DHT22;2442;48.676;7.986;2022-08-03T13:53:07;34.30;99.90
4856;DHT22;2442;48.676;7.986;2022-08-03T13:55:34;34.10;99.90
4856;DHT22;2442;48.676;7.986;2022-08-03T13:58:01;34.30;99.90
4856;DHT22;2442;48.676;7.986;2022-08-03T14:00:28;34.40;99.90
4856;DHT22;2442;48.676;7.986;2022-08-03T14:03:00;34.40;99.90
4856;DHT22;2442;48.676;7.986;2022-08-03T14:05:28;34.40;99.90
4856;DHT22;2442;48.676;7.986;2022-08-03T14:07:56;34.50;99.90
4856;DHT22;2442;48.676;7.986;2022-08-03T14:10:23;34.50;99.90
4856;DHT22;2442;48.676;7.986;2022-08-03T14:12:50;34.30;99.90
4856;DHT22;2442;48.676;7.986;2022-08-03T14:15:16;34.20;99.90
4856;DHT22;2442;48.676;7.986;2022-08-03T14:17:43;34.30;99.90
4856;DHT22;2442;48.676;7.986;2022-08-03T14:20:10;34.70;99.90
4856;DHT22;2442;48.676;7.986;2022-08-03T14:22:40;34.70;99.90
4856;DHT22;2442;48.676;7.986;2022-08-03T14:25:07;34.70;99.90
4856;DHT22;2442;48.676;7.986;2022-08-03T14:27:34;34.70;99.90
4856;DHT22;2442;48.676;7.986;2022-08-03T14:30:02;34.90;99.90
4856;DHT22;2442;48.676;7.986;2022-08-03T14:32:29;34.80;99.90
4856;DHT22;2442;48.676;7.986;2022-08-03T14:34:55;34.60;99.90
4856;DHT22;2442;48.676;7.986;2022-08-03T14:37:22;34.60;99.90
4856;DHT22;2442;48.676;7.986;2022-08-03T14:39:50;34.50;99.90
4856;DHT22;2442;48.676;7.986;2022-08-03T14:42:17;34.70;99.90
4856;DHT22;2442;48.676;7.986;2022-08-03T14:44:44;34.20;99.90
4856;DHT22;2442;48.676;7.986;2022-08-03T14:47:11;34.40;99.90
4856;DHT22;2442;48.676;7.986;2022-08-03T14:49:38;34.60;99.90
4856;DHT22;2442;48.676;7.986;2022-08-03T14:52:06;34.90;99.90
4856;DHT22;2442;48.676;7.986;2022-08-03T14:54:32;34.90;99.90
4856;DHT22;2442;48.676;7.986;2022-08-03T14:57:01;35.00;99.90
4856;DHT22;2442;48.676;7.986;2022-08-03T14:59:27;35.00;99.90
4856;DHT22;2442;48.676;7.986;2022-08-03T15:01:54;35.10;99.90
4856;DHT22;2442;48.676;7.986;2022-08-03T15:04:21;35.00;99.90
4856;DHT22;2442;48.676;7.986;2022-08-03T15:06:48;35.00;99.90
4856;DHT22;2442;48.676;7.986;2022-08-03T15:09:15;35.20;99.90
4856;DHT22;2442;48.676;7.986;2022-08-03T15:11:42;35.20;99.40
4856;DHT22;2442;48.676;7.986;2022-08-03T15:14:10;35.20;99.90
4856;DHT22;2442;48.676;7.986;2022-08-03T15:16:37;35.10;98.70
4856;DHT22;2442;48.676;7.986;2022-08-03T15:19:04;35.30;99.90
4856;DHT22;2442;48.676;7.986;2022-08-03T15:21:31;35.30;99.60
4856;DHT22;2442;48.676;7.986;2022-08-03T15:23:58;35.30;99.30
4856;DHT22;2442;48.676;7.986;2022-08-03T15:26:25;35.40;99.90
4856;DHT22;2442;48.676;7.986;2022-08-03T15:28:51;35.40;99.70
4856;DHT22;2442;48.676;7.986;2022-08-03T15:31:21;35.10;98.70
4856;DHT22;2442;48.676;7.986;2022-08-03T15:33:48;35.10;98.70
4856;DHT22;2442;48.676;7.986;2022-08-03T15:36:16;35.20;98.60
4856;DHT22;2442;48.676;7.986;2022-08-03T15:38:43;35.40;99.00
4856;DHT22;2442;48.676;7.986;2022-08-03T15:41:10;35.50;99.10
4856;DHT22;2442;48.676;7.986;2022-08-03T15:43:37;35.40;99.10
4856;DHT22;2442;48.676;7.986;2022-08-03T15:46:04;35.80;98.70
4856;DHT22;2442;48.676;7.986;2022-08-03T15:48:32;35.70;98.20
4856;DHT22;2442;48.676;7.986;2022-08-03T15:50:59;35.40;98.50
4856;DHT22;2442;48.676;7.986;2022-08-03T15:53:26;35.50;99.00
4856;DHT22;2442;48.676;7.986;2022-08-03T15:55:53;35.60;98.30
4856;DHT22;2442;48.676;7.986;2022-08-03T15:58:20;35.10;98.50
4856;DHT22;2442;48.676;7.986;2022-08-03T16:00:46;34.80;99.10
4856;DHT22;2442;48.676;7.986;2022-08-03T16:03:13;35.00;99.30
4856;DHT22;2442;48.676;7.986;2022-08-03T16:05:41;35.00;98.50
4856;DHT22;2442;48.676;7.986;2022-08-03T16:08:08;34.90;98.60
4856;DHT22;2442;48.676;7.986;2022-08-03T16:10:35;35.00;98.80
4856;DHT22;2442;48.676;7.986;2022-08-03T16:13:02;35.10;99.50